Time;durP1;ratioP1;P1;durP2;ratioP2;P2;SDS_P1;SDS_P2;PMS_P1;PMS_P2;Temp;Humidity;BMP_temperature;BMP_pressure;BME280_temperature;BME280_humidity;BME280_pressure;Samples;Min_cycle;Max_cycle;Signal;HPM_P1;HPM_P2
2022/05/08 00:02:07;;;;;;;2.35;0.95;;;16.20;99.90;;;;;;5091771;28;20195;-75
2022/05/08 00:04:38;;;;;;;3.20;0.88;;;16.30;99.90;;;;;;5086675;28;20227;-76
2022/05/08 00:07:09;;;;;;;2.15;0.60;;;16.40;99.90;;;;;;5073947;28;20189;-76
2022/05/08 00:09:39;;;;;;;2.00;0.80;;;16.50;99.90;;;;;;5073759;28;20189;-75
2022/05/08 00:12:11;;;;;;;2.58;0.90;;;16.60;99.90;;;;;;5073568;28;20629;-77
2022/05/08 00:14:41;;;;;;;2.10;0.85;;;16.70;99.90;;;;;;5074133;28;20272;-76
2022/05/08 00:17:14;;;;;;;1.92;0.70;;;16.80;99.90;;;;;;5076877;28;20208;-75
2022/05/08 00:19:47;;;;;;;1.60;0.80;;;16.90;99.90;;;;;;5086721;28;20276;-76
2022/05/08 00:22:18;;;;;;;1.40;0.95;;;17.00;99.90;;;;;;5087812;28;20238;-75
2022/05/08 00:24:48;;;;;;;2.67;0.80;;;17.00;99.90;;;;;;5093809;28;20207;-76
2022/05/08 00:27:19;;;;;;;2.75;0.82;;;17.00;99.90;;;;;;5093724;28;20273;-76
2022/05/08 00:29:49;;;;;;;2.78;0.65;;;17.10;99.90;;;;;;5080570;28;20245;-76
2022/05/08 00:32:22;;;;;;;2.33;0.77;;;17.20;99.90;;;;;;5091860;28;20188;-76
2022/05/08 00:34:53;;;;;;;1.75;0.68;;;17.30;99.90;;;;;;5073043;28;20224;-76
2022/05/08 00:37:23;;;;;;;2.05;0.60;;;17.40;99.90;;;;;;5076640;28;20294;-76
2022/05/08 00:39:54;;;;;;;0.77;0.60;;;17.50;99.90;;;;;;5073520;28;20262;-76
2022/05/08 00:42:27;;;;;;;1.77;0.68;;;17.60;99.90;;;;;;5074578;28;20204;-76
2022/05/08 00:44:57;;;;;;;0.85;0.47;;;17.70;99.90;;;;;;5073720;28;20529;-75
2022/05/08 00:47:30;;;;;;;1.33;0.50;;;17.80;99.90;;;;;;5073035;28;20193;-76
2022/05/08 00:50:01;;;;;;;9.80;5.43;;;17.90;99.90;;;;;;5093230;28;20188;-76
2022/05/08 00:52:32;;;;;;;11.20;5.25;;;17.90;99.90;;;;;;5080962;28;20185;-75
2022/05/08 00:55:02;;;;;;;8.80;5.38;;;18.00;99.90;;;;;;5073107;28;20242;-76
2022/05/08 00:57:33;;;;;;;3.75;2.10;;;18.10;99.90;;;;;;5081884;28;20239;-76
2022/05/08 01:00:08;;;;;;;2.00;1.20;;;18.20;99.90;;;;;;5078846;28;20234;-75
2022/05/08 01:02:41;;;;;;;1.90;1.30;;;18.20;99.90;;;;;;5092610;28;20196;-76
2022/05/08 01:05:12;;;;;;;3.50;0.80;;;18.30;99.90;;;;;;5093086;28;20237;-76
2022/05/08 01:07:42;;;;;;;0.90;0.50;;;18.40;99.90;;;;;;5082429;28;20599;-75
2022/05/08 01:10:14;;;;;;;1.75;0.52;;;18.50;99.90;;;;;;5074533;28;20185;-75
2022/05/08 01:12:45;;;;;;;1.15;0.47;;;18.50;99.90;;;;;;5086540;28;20188;-75
2022/05/08 01:15:18;;;;;;;1.77;0.50;;;18.60;99.90;;;;;;5092506;28;20184;-75
2022/05/08 01:17:52;;;;;;;1.40;0.50;;;18.70;99.90;;;;;;5093049;28;20640;-75
2022/05/08 01:20:22;;;;;;;0.88;0.30;;;18.80;99.90;;;;;;5091156;28;20224;-74
2022/05/08 01:22:55;;;;;;;0.82;0.50;;;18.90;99.90;;;;;;5072858;28;20193;-75
2022/05/08 01:25:26;;;;;;;2.05;0.57;;;18.90;99.90;;;;;;5073925;28;20189;-78
2022/05/08 01:27:56;;;;;;;1.40;0.50;;;19.00;99.90;;;;;;5075482;28;20193;-76
2022/05/08 01:30:27;;;;;;;2.42;0.35;;;19.00;99.90;;;;;;5073606;28;20640;-75
2022/05/08 01:33:00;;;;;;;0.63;0.30;;;19.00;99.90;;;;;;5088257;28;20196;-75
2022/05/08 01:35:31;;;;;;;1.35;0.50;;;19.00;99.90;;;;;;5091647;28;20184;-77
2022/05/08 01:38:03;;;;;;;1.27;0.40;;;19.00;99.90;;;;;;5074918;28;20213;-76
2022/05/08 01:40:34;;;;;;;1.08;0.28;;;19.10;99.90;;;;;;5073695;28;20193;-76
2022/05/08 01:43:05;;;;;;;1.75;0.43;;;19.20;99.90;;;;;;5072548;28;20260;-76
2022/05/08 01:45:36;;;;;;;1.10;0.52;;;19.20;99.90;;;;;;5072500;28;20257;-75
2022/05/08 01:48:26;;;;;;;0.90;0.40;;;19.30;99.90;;;;;;5072472;28;20243;-75
2022/05/08 01:50:58;;;;;;;0.60;0.45;;;19.40;99.90;;;;;;5077575;28;20188;-79
2022/05/08 01:53:33;;;;;;;0.90;0.50;;;19.50;99.90;;;;;;5084412;28;20205;-75
2022/05/08 01:56:07;;;;;;;0.55;0.38;;;19.40;99.90;;;;;;5073104;28;20637;-74
2022/05/08 01:58:37;;;;;;;0.45;0.40;;;19.50;99.90;;;;;;5079386;28;20232;-75
2022/05/08 02:01:10;;;;;;;1.25;0.40;;;19.50;99.90;;;;;;5076415;28;20287;-75
2022/05/08 02:03:42;;;;;;;1.30;0.40;;;19.50;99.90;;;;;;5087084;28;20198;-75
2022/05/08 02:06:13;;;;;;;0.93;0.50;;;19.50;99.90;;;;;;5094438;28;20197;-74
2022/05/08 02:08:46;;;;;;;0.52;0.40;;;19.60;99.90;;;;;;5084456;28;20197;-75
2022/05/08 02:11:17;;;;;;;1.27;0.40;;;19.60;99.90;;;;;;5096198;28;20689;-75
2022/05/08 02:13:48;;;;;;;1.85;0.40;;;19.70;99.90;;;;;;5085753;28;20207;-75
2022/05/08 02:16:18;;;;;;;1.20;0.40;;;19.70;99.90;;;;;;5075563;28;20189;-75
2022/05/08 02:18:49;;;;;;;1.40;0.38;;;19.80;99.90;;;;;;5095698;28;20246;-74
2022/05/08 02:21:20;;;;;;;1.75;0.32;;;19.70;99.90;;;;;;5083282;28;20656;-74
2022/05/08 02:23:52;;;;;;;2.97;0.90;;;19.80;99.90;;;;;;5087611;28;20195;-75
2022/05/08 02:26:23;;;;;;;1.10;0.80;;;19.70;99.90;;;;;;5095308;28;20208;-76
2022/05/08 02:28:54;;;;;;;1.20;0.70;;;19.80;99.90;;;;;;5093852;28;20194;-77
2022/05/08 02:31:24;;;;;;;1.55;0.43;;;19.80;99.90;;;;;;5093673;28;20196;-75
2022/05/08 02:33:57;;;;;;;0.98;0.45;;;19.60;99.90;;;;;;5095330;28;20196;-75
2022/05/08 02:36:27;;;;;;;0.73;0.30;;;19.80;99.90;;;;;;5088819;28;20189;-75
2022/05/08 02:39:00;;;;;;;1.52;0.45;;;19.80;99.90;;;;;;5079318;28;20188;-75
2022/05/08 02:41:30;;;;;;;1.58;0.40;;;19.80;99.90;;;;;;5087047;28;20204;-75
2022/05/08 02:44:01;;;;;;;2.03;0.57;;;20.00;99.90;;;;;;5089130;28;20666;-75
2022/05/08 02:46:32;;;;;;;1.27;0.43;;;20.00;99.90;;;;;;5091167;28;20226;-74
2022/05/08 02:49:02;;;;;;;1.17;0.40;;;20.00;99.90;;;;;;5093979;28;20700;-75
2022/05/08 02:51:33;;;;;;;0.90;0.43;;;20.00;99.90;;;;;;5089035;28;20192;-76
2022/05/08 02:54:06;;;;;;;2.00;0.40;;;20.10;99.90;;;;;;5094409;28;20212;-75
2022/05/08 02:59:23;;;;;;;0.70;0.40;;;20.10;99.90;;;;;;5085960;28;20234;-76
2022/05/08 03:01:55;;;;;;;1.02;0.45;;;20.10;99.90;;;;;;5094169;28;20199;-75
2022/05/08 03:04:25;;;;;;;1.65;0.50;;;20.00;99.90;;;;;;5092297;28;20211;-75
2022/05/08 03:06:56;;;;;;;0.70;0.30;;;20.00;99.90;;;;;;5093016;28;20192;-74
2022/05/08 03:09:28;;;;;;;2.03;0.35;;;20.00;99.90;;;;;;5085419;28;20271;-74
2022/05/08 03:11:59;;;;;;;1.08;0.43;;;20.00;99.90;;;;;;5093797;28;20192;-75
2022/05/08 03:14:30;;;;;;;2.35;1.23;;;19.90;99.90;;;;;;5080308;28;20197;-78
2022/05/08 03:17:00;;;;;;;1.08;0.60;;;19.90;99.90;;;;;;5087624;28;20212;-75
2022/05/08 03:19:31;;;;;;;1.95;1.10;;;19.80;99.90;;;;;;5088720;28;20197;-75
2022/05/08 03:22:02;;;;;;;3.33;0.70;;;19.80;99.90;;;;;;5087259;28;20572;-74
2022/05/08 03:24:35;;;;;;;2.00;1.15;;;19.80;99.90;;;;;;5089544;28;20204;-74
2022/05/08 03:27:06;;;;;;;1.15;0.57;;;19.80;99.90;;;;;;5092771;28;20703;-75
2022/05/08 03:29:37;;;;;;;0.77;0.65;;;19.80;99.90;;;;;;5082484;28;20251;-75
2022/05/08 03:32:08;;;;;;;2.50;0.70;;;19.80;99.90;;;;;;5088499;28;20208;-74
2022/05/08 03:34:39;;;;;;;2.78;0.77;;;19.80;99.90;;;;;;5089462;28;20200;-74
2022/05/08 03:37:10;;;;;;;2.45;0.50;;;19.80;99.90;;;;;;5089377;28;20216;-75
2022/05/08 03:39:43;;;;;;;2.85;0.60;;;19.80;99.90;;;;;;5092487;28;20207;-74
2022/05/08 03:42:13;;;;;;;1.77;0.50;;;19.70;99.90;;;;;;5085119;28;20192;-74
2022/05/08 03:44:44;;;;;;;1.08;0.30;;;19.70;99.90;;;;;;5085982;28;20246;-74
2022/05/08 03:47:15;;;;;;;2.58;0.60;;;19.60;99.90;;;;;;5088955;28;20564;-75
2022/05/08 03:49:45;;;;;;;1.65;0.47;;;19.60;99.90;;;;;;5084011;28;20655;-74
2022/05/08 03:52:16;;;;;;;2.13;0.50;;;19.60;99.90;;;;;;5087229;28;20218;-75
2022/05/08 03:54:49;;;;;;;1.27;0.50;;;19.60;99.90;;;;;;5086518;28;20728;-75
2022/05/08 03:57:19;;;;;;;0.75;0.40;;;19.60;99.90;;;;;;5082734;28;20238;-74
2022/05/08 03:59:50;;;;;;;1.27;0.32;;;19.60;99.90;;;;;;5081792;28;20233;-76
2022/05/08 04:02:21;;;;;;;2.42;0.50;;;19.70;99.90;;;;;;5078774;28;20196;-76
2022/05/08 04:04:52;;;;;;;0.70;0.30;;;19.80;99.90;;;;;;5084807;28;20228;-76
2022/05/08 04:07:22;;;;;;;1.55;0.43;;;19.80;99.90;;;;;;5086804;28;20197;-76
2022/05/08 04:09:55;;;;;;;1.10;0.47;;;19.80;99.90;;;;;;5079120;28;20184;-76
2022/05/08 04:12:26;;;;;;;0.77;0.40;;;19.80;99.90;;;;;;5083076;28;20238;-75
2022/05/08 04:14:56;;;;;;;0.70;0.30;;;19.70;99.90;;;;;;5074187;28;20250;-76
2022/05/08 04:17:28;;;;;;;0.95;0.43;;;19.70;99.90;;;;;;5074577;28;20587;-76
2022/05/08 04:19:59;;;;;;;2.60;0.50;;;19.70;99.90;;;;;;5093145;28;20588;-77
2022/05/08 04:25:18;;;;;;;1.63;0.38;;;19.50;99.90;;;;;;5076992;28;20196;-78
2022/05/08 04:27:49;;;;;;;1.67;0.40;;;19.50;99.90;;;;;;5082779;28;20208;-75
2022/05/08 04:30:19;;;;;;;2.40;0.30;;;19.40;99.90;;;;;;5093017;28;20193;-77
2022/05/08 04:32:50;;;;;;;2.13;0.38;;;19.40;99.90;;;;;;5088323;28;20195;-76
2022/05/08 04:35:21;;;;;;;2.15;0.40;;;19.50;99.90;;;;;;5078445;28;20200;-77
2022/05/08 04:37:51;;;;;;;0.93;0.30;;;19.40;99.90;;;;;;5078876;28;20224;-75
2022/05/08 04:40:24;;;;;;;0.65;0.30;;;19.40;99.90;;;;;;5087434;28;20204;-75
2022/05/08 04:42:55;;;;;;;0.80;0.40;;;19.40;99.90;;;;;;5089990;28;20200;-75
2022/05/08 04:45:25;;;;;;;1.42;0.40;;;19.40;99.90;;;;;;5076584;28;20211;-75
2022/05/08 04:47:56;;;;;;;2.10;0.32;;;19.40;99.90;;;;;;5077687;28;20225;-75
2022/05/08 04:50:27;;;;;;;0.40;0.20;;;19.40;99.90;;;;;;5086076;28;20651;-75
2022/05/08 04:52:57;;;;;;;0.68;0.25;;;19.40;99.90;;;;;;5081725;28;20592;-75
2022/05/08 04:55:30;;;;;;;1.65;0.30;;;19.40;99.90;;;;;;5093151;28;20636;-76
2022/05/08 04:58:01;;;;;;;0.30;0.30;;;19.30;99.90;;;;;;5086274;28;20243;-75
2022/05/08 05:00:31;;;;;;;0.73;0.35;;;19.30;99.90;;;;;;5073160;28;20200;-75
2022/05/08 05:03:02;;;;;;;0.50;0.20;;;19.30;99.90;;;;;;5073222;28;20197;-75
2022/05/08 05:05:33;;;;;;;0.50;0.30;;;19.30;99.90;;;;;;5087337;28;20242;-76
2022/05/08 05:08:04;;;;;;;0.82;0.40;;;19.20;99.90;;;;;;5080735;28;20209;-75
2022/05/08 05:10:37;;;;;;;1.48;0.50;;;19.20;99.90;;;;;;5090337;28;20659;-76
2022/05/08 05:13:07;;;;;;;0.52;0.30;;;19.10;99.90;;;;;;5088148;28;20203;-75
2022/05/08 05:15:38;;;;;;;0.70;0.38;;;19.10;99.90;;;;;;5080153;28;20189;-76
2022/05/08 05:18:09;;;;;;;0.20;0.20;;;19.10;99.90;;;;;;5087405;28;20216;-76
2022/05/08 05:20:40;;;;;;;0.77;0.30;;;19.10;99.90;;;;;;5085119;28;20189;-76
2022/05/08 05:23:11;;;;;;;0.95;0.40;;;19.10;99.90;;;;;;5081663;28;20189;-75
2022/05/08 05:25:43;;;;;;;0.20;0.20;;;19.10;99.90;;;;;;5086142;28;20215;-77
2022/05/08 05:28:14;;;;;;;0.32;0.30;;;19.10;99.90;;;;;;5072755;28;20636;-75
2022/05/08 05:30:44;;;;;;;0.93;0.38;;;19.10;99.90;;;;;;5080126;28;20193;-76
2022/05/08 05:33:17;;;;;;;0.85;0.28;;;19.10;99.90;;;;;;5081629;28;20196;-75
2022/05/08 05:35:48;;;;;;;0.88;0.40;;;19.10;99.90;;;;;;5087131;28;20648;-76
2022/05/08 05:38:18;;;;;;;1.08;0.30;;;19.00;99.90;;;;;;5091886;28;20215;-75
2022/05/08 05:40:51;;;;;;;1.33;0.22;;;19.00;99.90;;;;;;5085943;28;20205;-75
2022/05/08 05:43:22;;;;;;;0.60;0.20;;;19.00;99.90;;;;;;5095681;28;20245;-76
2022/05/08 05:48:38;;;;;;;1.63;0.35;;;18.90;99.90;;;;;;5079881;28;20195;-76
2022/05/08 05:51:09;;;;;;;1.52;0.60;;;18.90;99.90;;;;;;5087600;28;20193;-76
2022/05/08 05:53:39;;;;;;;1.48;0.70;;;18.90;99.90;;;;;;5096299;28;20196;-75
2022/05/08 05:56:12;;;;;;;1.73;0.50;;;18.90;99.90;;;;;;5077967;28;20217;-78
2022/05/08 05:58:43;;;;;;;0.45;0.30;;;18.80;99.90;;;;;;5084681;28;20292;-75
2022/05/08 06:01:14;;;;;;;0.82;0.40;;;18.80;99.90;;;;;;5096570;28;20184;-75
2022/05/08 06:03:44;;;;;;;1.30;0.35;;;18.80;99.90;;;;;;5080758;28;20189;-75
2022/05/08 06:06:15;;;;;;;1.15;0.45;;;18.70;99.90;;;;;;5077513;28;20706;-76
2022/05/08 06:08:46;;;;;;;4.05;0.50;;;18.70;99.90;;;;;;5078093;28;20284;-75
2022/05/08 06:11:19;;;;;;;1.17;0.32;;;18.80;99.90;;;;;;5076027;28;20200;-75
2022/05/08 06:13:49;;;;;;;1.70;0.50;;;18.40;99.90;;;;;;5075977;28;20193;-75
2022/05/08 06:16:20;;;;;;;0.55;0.30;;;18.70;99.90;;;;;;5075896;28;20189;-75
2022/05/08 06:18:51;;;;;;;1.27;0.40;;;18.70;99.90;;;;;;5075810;28;20216;-75
2022/05/08 06:21:21;;;;;;;0.88;0.32;;;18.60;99.90;;;;;;5078494;28;20200;-75
2022/05/08 06:23:52;;;;;;;3.30;0.63;;;18.50;99.90;;;;;;5081234;28;20200;-76
2022/05/08 06:26:25;;;;;;;1.02;0.60;;;18.40;99.90;;;;;;5075684;28;20209;-75
2022/05/08 06:28:57;;;;;;;1.02;0.50;;;18.30;99.90;;;;;;5075511;28;20189;-75
2022/05/08 06:31:28;;;;;;;0.85;0.38;;;18.20;99.90;;;;;;5077006;28;20203;-75
2022/05/08 06:33:58;;;;;;;0.95;0.43;;;18.10;99.90;;;;;;5075821;28;20620;-75
2022/05/08 06:36:29;;;;;;;1.48;0.40;;;18.10;99.90;;;;;;5076559;28;20192;-76
2022/05/08 06:39:00;;;;;;;0.68;0.40;;;18.00;99.90;;;;;;5082448;28;20548;-75
2022/05/08 06:41:32;;;;;;;1.73;0.47;;;17.90;99.90;;;;;;5095586;28;20639;-76
2022/05/08 06:44:03;;;;;;;1.23;0.40;;;17.80;99.90;;;;;;5079865;28;20208;-75
2022/05/08 06:46:35;;;;;;;0.75;0.43;;;17.70;99.90;;;;;;5075054;28;20189;-77
2022/05/08 06:49:06;;;;;;;0.85;0.47;;;17.60;99.90;;;;;;5082563;28;20219;-76
2022/05/08 06:51:37;;;;;;;2.05;0.60;;;17.60;99.90;;;;;;5088724;28;20322;-76
2022/05/08 06:54:08;;;;;;;0.47;0.40;;;17.50;99.90;;;;;;5085925;28;20189;-76
2022/05/08 06:56:41;;;;;;;1.33;0.80;;;17.40;99.90;;;;;;5087605;28;20224;-75
2022/05/08 07:01:58;;;;;;;1.13;1.02;;;17.20;99.90;;;;;;5086371;28;20211;-75
2022/05/08 07:04:29;;;;;;;1.33;1.13;;;17.10;99.90;;;;;;5080728;28;20207;-75
2022/05/08 07:07:00;;;;;;;1.20;1.10;;;17.10;99.90;;;;;;5082653;28;20201;-75
2022/05/08 07:09:32;;;;;;;4.00;1.10;;;17.00;99.90;;;;;;5083442;28;20209;-76
2022/05/08 07:12:04;;;;;;;1.50;1.00;;;16.80;99.90;;;;;;5077823;28;20193;-75
2022/05/08 07:14:35;;;;;;;2.05;1.02;;;16.80;99.90;;;;;;5078825;28;20197;-75
2022/05/08 07:17:06;;;;;;;1.95;0.80;;;16.70;99.90;;;;;;5078385;28;20200;-75
2022/05/08 07:19:38;;;;;;;1.00;0.90;;;16.60;99.90;;;;;;5083140;28;20222;-75
2022/05/08 07:22:09;;;;;;;1.30;0.93;;;16.50;99.90;;;;;;5078808;28;20279;-75
2022/05/08 07:24:42;;;;;;;2.53;1.00;;;16.40;99.90;;;;;;5077786;28;20671;-75
2022/05/08 07:27:15;;;;;;;3.63;1.08;;;16.40;99.90;;;;;;5084542;28;20245;-77
2022/05/08 07:29:46;;;;;;;4.20;1.10;;;16.30;99.90;;;;;;5077832;28;20245;-78
2022/05/08 07:32:16;;;;;;;1.55;0.80;;;16.30;99.90;;;;;;5083973;28;20196;-77
2022/05/08 07:37:34;;;;;;;1.80;0.93;;;16.20;99.90;;;;;;5088767;28;20203;-79
2022/05/08 07:40:04;;;;;;;1.73;1.00;;;16.10;99.90;;;;;;5087915;28;20223;-75
2022/05/08 07:42:37;;;;;;;2.92;1.20;;;16.10;99.90;;;;;;5078439;28;20721;-76
2022/05/08 07:45:08;;;;;;;2.80;1.10;;;16.00;99.90;;;;;;5082636;28;20192;-75
2022/05/08 07:47:39;;;;;;;1.90;1.15;;;16.00;99.90;;;;;;5080833;28;20196;-75
2022/05/08 07:50:11;;;;;;;2.33;1.25;;;16.00;99.90;;;;;;5085377;28;20604;-76
2022/05/08 07:52:42;;;;;;;2.70;1.13;;;15.90;99.90;;;;;;5086433;28;20197;-76
2022/05/08 07:55:13;;;;;;;2.47;1.27;;;15.90;99.90;;;;;;5085948;28;20238;-77
2022/05/08 07:57:45;;;;;;;2.95;1.30;;;15.90;99.90;;;;;;5084899;28;20227;-76
2022/05/08 08:00:16;;;;;;;2.95;1.40;;;15.90;99.90;;;;;;5087091;28;20211;-75
2022/05/08 08:02:47;;;;;;;3.83;1.40;;;15.80;99.90;;;;;;5080500;28;20193;-77
2022/05/08 08:05:18;;;;;;;2.10;1.30;;;15.80;99.90;;;;;;5093123;28;20198;-76
2022/05/08 08:07:48;;;;;;;3.08;1.35;;;15.80;99.90;;;;;;5087529;28;20196;-75
2022/05/08 08:10:19;;;;;;;2.75;1.50;;;15.80;99.90;;;;;;5085198;28;20193;-78
2022/05/08 08:12:52;;;;;;;3.17;1.48;;;15.80;99.90;;;;;;5089856;28;20201;-77
2022/05/08 08:15:22;;;;;;;43.17;19.65;;;15.80;99.90;;;;;;5093945;28;20193;-76
2022/05/08 08:17:53;;;;;;;34.05;18.45;;;15.80;99.90;;;;;;5081371;28;20292;-77
2022/05/08 08:20:24;;;;;;;8.35;4.72;;;15.80;99.90;;;;;;5074531;28;20251;-77
2022/05/08 08:22:54;;;;;;;4.25;2.60;;;15.70;99.90;;;;;;5089731;28;20655;-77
2022/05/08 08:25:25;;;;;;;4.85;1.92;;;15.70;99.90;;;;;;5079007;28;20228;-78
2022/05/08 08:27:58;;;;;;;3.45;1.60;;;15.70;99.90;;;;;;5090987;28;20206;-78
2022/05/08 08:30:29;;;;;;;3.17;1.95;;;15.70;99.90;;;;;;5079765;28;20196;-76
2022/05/08 08:33:00;;;;;;;4.75;2.50;;;15.60;99.90;;;;;;5086091;28;20195;-76
2022/05/08 08:35:31;;;;;;;3.75;2.17;;;15.60;99.90;;;;;;5078077;28;20193;-76
2022/05/08 08:38:02;;;;;;;4.38;1.92;;;15.60;99.90;;;;;;5090761;28;20200;-78
2022/05/08 08:40:34;;;;;;;3.42;1.95;;;15.60;99.90;;;;;;5093383;28;20184;-77
2022/05/08 08:43:09;;;;;;;2.97;1.40;;;15.60;99.90;;;;;;5086064;28;20569;-78
2022/05/08 08:48:31;;;;;;;3.28;1.90;;;15.50;99.90;;;;;;5079941;28;20207;-78
2022/05/08 08:51:03;;;;;;;4.68;2.13;;;15.50;99.90;;;;;;5075909;28;20248;-79
2022/05/08 08:53:34;;;;;;;3.25;1.92;;;15.40;99.90;;;;;;5079837;28;20211;-76
2022/05/08 08:56:05;;;;;;;4.97;2.50;;;15.40;99.90;;;;;;5083054;28;20216;-77
2022/05/08 08:58:37;;;;;;;3.80;2.42;;;15.40;99.90;;;;;;5084092;28;20595;-77
2022/05/08 09:01:08;;;;;;;6.10;3.05;;;15.50;99.90;;;;;;5080971;28;20249;-76
2022/05/08 09:03:38;;;;;;;6.72;3.03;;;15.40;99.90;;;;;;5087670;28;20224;-78
2022/05/08 09:06:10;;;;;;;10.48;3.10;;;15.40;99.90;;;;;;5077010;28;20203;-78
2022/05/08 09:08:40;;;;;;;4.57;3.13;;;15.40;99.90;;;;;;5082182;28;20235;-79
2022/05/08 09:11:11;;;;;;;6.75;3.45;;;15.30;99.90;;;;;;5085065;28;20675;-78
2022/05/08 09:13:52;;;;;;;6.45;3.40;;;15.20;99.90;;;;;;5096023;28;20238;-78
2022/05/08 09:16:23;;;;;;;8.52;3.60;;;15.20;99.90;;;;;;5088104;28;20197;-76
2022/05/08 09:18:54;;;;;;;7.68;3.70;;;15.10;99.90;;;;;;5081607;28;20388;-77
2022/05/08 09:24:17;;;;;;;8.32;3.45;;;15.10;99.90;;;;;;5097217;28;20692;-79
2022/05/08 09:26:49;;;;;;;6.93;3.40;;;15.10;99.90;;;;;;5078010;28;20197;-78
2022/05/08 09:29:28;;;;;;;7.65;4.05;;;15.10;99.90;;;;;;5094197;28;20191;-77
2022/05/08 09:31:58;;;;;;;9.57;3.97;;;15.10;99.90;;;;;;5088357;28;20200;-77
2022/05/08 09:34:29;;;;;;;8.50;4.57;;;15.10;99.90;;;;;;5094543;28;20200;-77
2022/05/08 09:37:09;;;;;;;7.95;4.43;;;15.10;99.90;;;;;;5090876;28;20237;-79
2022/05/08 09:39:39;;;;;;;9.18;4.13;;;15.00;99.90;;;;;;5090735;28;20272;-77
2022/05/08 09:42:30;;;;;;;9.77;4.50;;;15.00;99.90;;;;;;5087938;28;20246;-76
2022/05/08 09:45:12;;;;;;;10.10;4.07;;;15.00;99.90;;;;;;5079089;28;20200;-79
2022/05/08 09:47:46;;;;;;;10.05;4.55;;;14.90;99.90;;;;;;5090962;28;20200;-79
2022/05/08 09:50:18;;;;;;;8.75;3.92;;;14.80;99.90;;;;;;5090750;28;20610;-79
2022/05/08 09:52:49;;;;;;;9.63;4.60;;;14.80;99.90;;;;;;5083869;28;20571;-79
2022/05/08 09:55:19;;;;;;;10.60;4.28;;;14.80;99.90;;;;;;5080784;28;20197;-78
2022/05/08 09:57:50;;;;;;;9.90;3.92;;;14.70;99.90;;;;;;5087925;28;20215;-78
2022/05/08 10:00:23;;;;;;;8.38;3.80;;;14.60;99.90;;;;;;5078241;28;20221;-78
2022/05/08 10:02:54;;;;;;;6.63;3.75;;;14.60;99.90;;;;;;5082539;28;20196;-78
2022/05/08 10:05:25;;;;;;;7.68;3.92;;;14.60;99.90;;;;;;5090873;28;20200;-79
2022/05/08 10:07:56;;;;;;;10.18;3.75;;;14.50;99.90;;;;;;5083399;28;20200;-78
2022/05/08 10:16:01;;;;;;;6.57;4.00;;;14.40;99.90;;;;;;5086625;28;20195;-79
2022/05/08 10:18:32;;;;;;;7.78;4.00;;;14.40;99.90;;;;;;5095974;28;20192;-80
2022/05/08 10:21:07;;;;;;;7.60;4.00;;;14.40;99.90;;;;;;5094558;28;20192;-79
2022/05/08 10:23:40;;;;;;;7.30;3.80;;;14.40;99.90;;;;;;5095848;28;20191;-79
2022/05/08 10:26:22;;;;;;;9.43;4.07;;;14.40;99.90;;;;;;5095709;28;20696;-80
2022/05/08 10:29:14;;;;;;;7.93;4.20;;;14.40;99.90;;;;;;5094319;28;20362;-80
2022/05/08 10:31:48;;;;;;;6.78;4.35;;;14.40;99.90;;;;;;5078242;28;20246;-78
2022/05/08 10:34:31;;;;;;;8.02;4.40;;;14.30;99.90;;;;;;5075480;28;20220;-76
2022/05/08 10:37:29;;;;;;;10.45;5.05;;;14.30;99.90;;;;;;5075265;28;20189;-78
2022/05/08 10:40:01;;;;;;;9.80;5.05;;;14.20;99.90;;;;;;5075239;28;20236;-78
2022/05/08 10:42:45;;;;;;;10.02;5.53;;;14.20;99.90;;;;;;5085861;28;20188;-79
2022/05/08 10:45:46;;;;;;;8.40;4.82;;;14.20;99.90;;;;;;5087431;28;20656;-78
2022/05/08 10:48:21;;;;;;;10.55;4.72;;;14.20;99.90;;;;;;5075288;28;20636;-78
2022/05/08 10:50:52;;;;;;;11.38;5.50;;;14.20;99.90;;;;;;5077725;28;20192;-77
2022/05/08 10:53:30;;;;;;;9.07;5.70;;;14.20;99.90;;;;;;5076620;28;20189;-78
2022/05/08 10:56:09;;;;;;;12.73;5.53;;;14.20;99.90;;;;;;5076026;28;20208;-78
2022/05/08 10:58:52;;;;;;;9.02;5.63;;;14.20;99.90;;;;;;5075818;28;20233;-77
2022/05/08 11:01:24;;;;;;;13.25;6.25;;;14.20;99.90;;;;;;5066497;28;20228;-76
2022/05/08 11:04:12;;;;;;;12.80;6.47;;;14.20;99.90;;;;;;5073706;28;20204;-76
2022/05/08 11:06:44;;;;;;;13.52;7.13;;;14.20;99.90;;;;;;5070806;28;20185;-77
2022/05/08 11:09:15;;;;;;;12.98;6.35;;;14.20;99.90;;;;;;5054658;28;20189;-79
2022/05/08 11:11:46;;;;;;;13.20;6.97;;;14.20;99.90;;;;;;5054539;28;20270;-78
2022/05/08 11:14:26;;;;;;;14.98;7.35;;;14.20;99.90;;;;;;5056931;28;20675;-78
2022/05/08 11:16:57;;;;;;;14.75;7.32;;;14.10;99.90;;;;;;5056173;28;20197;-78
2022/05/08 11:19:29;;;;;;;12.45;6.50;;;14.10;99.90;;;;;;5065351;28;20581;-79
2022/05/08 11:22:09;;;;;;;12.15;6.93;;;14.10;99.90;;;;;;5054497;28;20247;-79
2022/05/08 11:24:40;;;;;;;14.48;7.50;;;14.00;99.90;;;;;;5067660;28;20197;-77
2022/05/08 11:27:19;;;;;;;13.38;7.00;;;14.00;99.90;;;;;;5045903;28;20567;-78
2022/05/08 11:29:53;;;;;;;12.43;6.93;;;14.00;99.90;;;;;;5046164;28;22080;-78
2022/05/08 11:38:05;;;;;;;13.23;7.05;;;14.00;99.90;;;;;;5055464;28;20706;-77
2022/05/08 11:40:36;;;;;;;12.00;6.93;;;14.10;99.90;;;;;;5066040;28;20303;-78
2022/05/08 11:43:07;;;;;;;11.68;7.15;;;14.10;99.90;;;;;;5059849;28;20219;-77
2022/05/08 11:45:38;;;;;;;13.27;7.10;;;14.10;99.90;;;;;;5065696;28;20200;-77
2022/05/08 11:48:09;;;;;;;12.30;6.70;;;14.20;99.90;;;;;;5067674;28;20246;-76
2022/05/08 11:50:54;;;;;;;11.55;6.75;;;14.20;99.90;;;;;;5071503;28;20189;-75
2022/05/08 11:53:25;;;;;;;13.60;7.25;;;14.20;99.90;;;;;;5060397;28;20189;-76
2022/05/08 11:55:55;;;;;;;13.70;7.13;;;14.30;99.90;;;;;;5063495;28;20241;-78
2022/05/08 11:58:35;;;;;;;13.65;7.40;;;14.30;99.90;;;;;;5074275;28;20239;-77
2022/05/08 12:01:06;;;;;;;13.35;7.32;;;14.30;99.90;;;;;;5091614;28;20641;-77
2022/05/08 12:03:36;;;;;;;14.18;6.90;;;14.30;99.90;;;;;;5083558;28;20880;-77
2022/05/08 12:06:16;;;;;;;13.40;7.35;;;14.30;99.90;;;;;;5082539;28;20192;-76
2022/05/08 12:08:47;;;;;;;11.95;6.70;;;14.30;99.90;;;;;;5092749;28;20257;-76
2022/05/08 12:11:33;;;;;;;13.13;7.00;;;14.40;99.90;;;;;;5091257;28;20196;-76
2022/05/08 12:14:08;;;;;;;11.13;6.43;;;14.40;99.90;;;;;;5089089;28;20204;-78
2022/05/08 12:16:39;;;;;;;10.80;6.28;;;14.40;99.90;;;;;;5083499;28;20662;-77
2022/05/08 12:19:15;;;;;;;10.13;6.15;;;14.40;99.90;;;;;;5091658;28;20196;-76
2022/05/08 12:21:49;;;;;;;13.55;5.80;;;14.30;99.90;;;;;;5080007;28;20238;-76
2022/05/08 12:24:20;;;;;;;8.43;5.20;;;14.40;99.90;;;;;;5090484;28;20253;-76
2022/05/08 12:26:51;;;;;;;10.38;6.18;;;14.30;99.90;;;;;;5079051;28;20222;-77
2022/05/08 12:29:23;;;;;;;11.73;5.38;;;14.20;99.90;;;;;;5092328;28;20203;-76
2022/05/08 12:31:54;;;;;;;8.95;4.30;;;14.20;99.90;;;;;;5091557;28;20237;-76
2022/05/08 12:34:25;;;;;;;7.63;4.55;;;14.30;99.90;;;;;;5090185;28;20257;-76
2022/05/08 12:36:58;;;;;;;7.43;4.10;;;14.20;99.90;;;;;;5086451;28;20201;-76
2022/05/08 12:39:30;;;;;;;7.72;3.92;;;14.20;99.90;;;;;;5090178;28;20219;-77
2022/05/08 12:42:01;;;;;;;6.70;3.70;;;14.20;99.90;;;;;;5092136;28;20228;-77
2022/05/08 12:44:31;;;;;;;9.70;3.22;;;14.30;99.90;;;;;;5081948;28;20203;-76
2022/05/08 12:47:03;;;;;;;6.13;3.15;;;14.30;99.90;;;;;;5087732;28;20659;-75
2022/05/08 12:49:33;;;;;;;7.00;2.90;;;14.30;99.90;;;;;;5081488;28;20192;-76
2022/05/08 12:52:07;;;;;;;5.70;3.20;;;14.30;99.90;;;;;;5085623;28;20196;-76
2022/05/08 12:54:38;;;;;;;6.35;3.03;;;14.30;99.90;;;;;;5075075;28;20246;-75
2022/05/08 12:57:11;;;;;;;6.57;3.00;;;14.30;99.90;;;;;;5089091;28;20196;-76
2022/05/08 12:59:47;;;;;;;5.65;2.78;;;14.30;99.90;;;;;;5059732;28;20233;-76
2022/05/08 13:02:18;;;;;;;4.30;2.50;;;14.30;99.90;;;;;;5064783;28;20193;-75
2022/05/08 13:04:50;;;;;;;3.38;2.75;;;14.30;99.90;;;;;;5071798;28;20197;-76
2022/05/08 13:07:23;;;;;;;4.80;2.70;;;14.40;99.90;;;;;;5068950;28;20200;-76
2022/05/08 13:09:53;;;;;;;4.88;2.60;;;14.40;99.90;;;;;;5061603;28;20205;-76
2022/05/08 13:12:24;;;;;;;5.00;2.75;;;14.40;99.90;;;;;;5067840;28;20200;-76
2022/05/08 13:14:55;;;;;;;3.83;2.33;;;14.40;99.90;;;;;;5061601;28;20189;-76
2022/05/08 13:17:25;;;;;;;4.95;2.70;;;14.40;99.90;;;;;;5053276;28;20719;-77
2022/05/08 13:19:56;;;;;;;4.82;2.50;;;14.40;99.90;;;;;;5055374;28;20578;-76
2022/05/08 13:22:29;;;;;;;4.47;2.53;;;14.40;99.90;;;;;;5067051;28;20656;-76
2022/05/08 13:25:00;;;;;;;4.75;2.60;;;14.50;99.90;;;;;;5059189;28;20721;-76
2022/05/08 13:27:30;;;;;;;5.30;2.70;;;14.40;99.90;;;;;;5058979;28;20213;-77
2022/05/08 13:30:02;;;;;;;5.35;2.72;;;14.40;99.90;;;;;;5054940;28;20255;-77
2022/05/08 13:32:32;;;;;;;5.68;2.53;;;14.40;99.90;;;;;;5054281;28;20197;-77
2022/05/08 13:35:03;;;;;;;4.80;2.33;;;14.40;99.90;;;;;;5069856;28;20200;-78
2022/05/08 13:37:35;;;;;;;4.20;2.55;;;14.40;99.90;;;;;;5060892;28;20198;-77
2022/05/08 13:40:07;;;;;;;4.30;2.38;;;14.40;99.90;;;;;;5068526;28;20224;-79
2022/05/08 13:42:37;;;;;;;5.68;2.40;;;14.40;99.90;;;;;;5058209;28;20201;-79